sensor_id;sensor_type;location;lat;lon;timestamp;P1;P2;P0
47705;PMS5003;33471;52.104;1.318;2022-09-24T00:01:10;9;9;
47705;PMS5003;33471;52.104;1.318;2022-09-24T00:03:40;7;7;
47705;PMS5003;33471;52.104;1.318;2022-09-24T00:06:08;8;8;
47705;PMS5003;33471;52.104;1.318;2022-09-24T00:08:35;8;8;
47705;PMS5003;33471;52.104;1.318;2022-09-24T00:11:04;4;4;
47705;PMS5003;33471;52.104;1.318;2022-09-24T00:13:33;7;7;
47705;PMS5003;33471;52.104;1.318;2022-09-24T00:16:01;8;7;
47705;PMS5003;33471;52.104;1.318;2022-09-24T00:18:30;7;6;
47705;PMS5003;33471;52.104;1.318;2022-09-24T00:20:58;6;6;
47705;PMS5003;33471;52.104;1.318;2022-09-24T00:23:26;5;3;
47705;PMS5003;33471;52.104;1.318;2022-09-24T00:25:53;5;5;
47705;PMS5003;33471;52.104;1.318;2022-09-24T00:28:20;9;7;
47705;PMS5003;33471;52.104;1.318;2022-09-24T00:30:47;8;8;
47705;PMS5003;33471;52.104;1.318;2022-09-24T00:33:14;6;6;
47705;PMS5003;33471;52.104;1.318;2022-09-24T00:35:41;6;6;
47705;PMS5003;33471;52.104;1.318;2022-09-24T00:38:09;6;6;
47705;PMS5003;33471;52.104;1.318;2022-09-24T00:40:37;6;5;
47705;PMS5003;33471;52.104;1.318;2022-09-24T00:43:20;10;9;
47705;PMS5003;33471;52.104;1.318;2022-09-24T00:45:49;5;5;
47705;PMS5003;33471;52.104;1.318;2022-09-24T00:48:18;8;8;
47705;PMS5003;33471;52.104;1.318;2022-09-24T00:50:45;6;6;
47705;PMS5003;33471;52.104;1.318;2022-09-24T00:53:15;7;5;
47705;PMS5003;33471;52.104;1.318;2022-09-24T00:55:46;6;6;
47705;PMS5003;33471;52.104;1.318;2022-09-24T00:58:17;5;5;
47705;PMS5003;33471;52.104;1.318;2022-09-24T01:00:44;6;6;
47705;PMS5003;33471;52.104;1.318;2022-09-24T01:03:13;5;5;
47705;PMS5003;33471;52.104;1.318;2022-09-24T01:05:45;3;3;
47705;PMS5003;33471;52.104;1.318;2022-09-24T01:08:12;4;4;
47705;PMS5003;33471;52.104;1.318;2022-09-24T01:10:46;6;6;
47705;PMS5003;33471;52.104;1.318;2022-09-24T01:13:29;4;4;
47705;PMS5003;33471;52.104;1.318;2022-09-24T01:16:05;5;5;
47705;PMS5003;33471;52.104;1.318;2022-09-24T01:18:39;3;3;
47705;PMS5003;33471;52.104;1.318;2022-09-24T01:21:23;4;4;
47705;PMS5003;33471;52.104;1.318;2022-09-24T01:24:02;6;6;
47705;PMS5003;33471;52.104;1.318;2022-09-24T01:24:46;6;6;
47705;PMS5003;33471;52.104;1.318;2022-09-24T01:27:25;4;4;
47705;PMS5003;33471;52.104;1.318;2022-09-24T01:30:05;6;5;
47705;PMS5003;33471;52.104;1.318;2022-09-24T01:32:37;9;9;
47705;PMS5003;33471;52.104;1.318;2022-09-24T01:35:10;15;8;
47705;PMS5003;33471;52.104;1.318;2022-09-24T01:37:44;5;4;
47705;PMS5003;33471;52.104;1.318;2022-09-24T01:40:16;12;11;
47705;PMS5003;33471;52.104;1.318;2022-09-24T01:42:45;9;7;
47705;PMS5003;33471;52.104;1.318;2022-09-24T01:45:15;6;6;
47705;PMS5003;33471;52.104;1.318;2022-09-24T01:47:45;11;7;
47705;PMS5003;33471;52.104;1.318;2022-09-24T01:50:15;14;13;
47705;PMS5003;33471;52.104;1.318;2022-09-24T01:52:45;9;7;
47705;PMS5003;33471;52.104;1.318;2022-09-24T01:55:19;7;7;
47705;PMS5003;33471;52.104;1.318;2022-09-24T01:57:51;6;6;
47705;PMS5003;33471;52.104;1.318;2022-09-24T02:00:25;7;7;
47705;PMS5003;33471;52.104;1.318;2022-09-24T02:02:54;10;9;
47705;PMS5003;33471;52.104;1.318;2022-09-24T02:05:28;6;4;
47705;PMS5003;33471;52.104;1.318;2022-09-24T02:08:01;5;5;
47705;PMS5003;33471;52.104;1.318;2022-09-24T02:10:33;5;5;
47705;PMS5003;33471;52.104;1.318;2022-09-24T02:13:06;5;5;
47705;PMS5003;33471;52.104;1.318;2022-09-24T02:15:37;5;4;
47705;PMS5003;33471;52.104;1.318;2022-09-24T02:18:07;4;4;
47705;PMS5003;33471;52.104;1.318;2022-09-24T02:20:39;6;6;
47705;PMS5003;33471;52.104;1.318;2022-09-24T02:23:08;7;7;
47705;PMS5003;33471;52.104;1.318;2022-09-24T02:25:40;6;6;
47705;PMS5003;33471;52.104;1.318;2022-09-24T02:28:11;4;4;
47705;PMS5003;33471;52.104;1.318;2022-09-24T02:30:39;8;7;
47705;PMS5003;33471;52.104;1.318;2022-09-24T02:33:12;4;4;
47705;PMS5003;33471;52.104;1.318;2022-09-24T02:35:42;5;5;
47705;PMS5003;33471;52.104;1.318;2022-09-24T02:38:14;4;4;
47705;PMS5003;33471;52.104;1.318;2022-09-24T02:40:42;7;7;
47705;PMS5003;33471;52.104;1.318;2022-09-24T02:43:09;5;5;
47705;PMS5003;33471;52.104;1.318;2022-09-24T02:45:36;4;4;
47705;PMS5003;33471;52.104;1.318;2022-09-24T02:48:04;3;3;
47705;PMS5003;33471;52.104;1.318;2022-09-24T02:50:31;15;15;
47705;PMS5003;33471;52.104;1.318;2022-09-24T02:52:58;5;5;
47705;PMS5003;33471;52.104;1.318;2022-09-24T02:55:24;6;6;
47705;PMS5003;33471;52.104;1.318;2022-09-24T02:57:52;7;6;
47705;PMS5003;33471;52.104;1.318;2022-09-24T03:00:19;4;4;
47705;PMS5003;33471;52.104;1.318;2022-09-24T03:02:46;6;6;
47705;PMS5003;33471;52.104;1.318;2022-09-24T03:05:14;11;11;
47705;PMS5003;33471;52.104;1.318;2022-09-24T03:07:41;6;5;
47705;PMS5003;33471;52.104;1.318;2022-09-24T03:10:09;14;10;
47705;PMS5003;33471;52.104;1.318;2022-09-24T03:12:36;5;3;
47705;PMS5003;33471;52.104;1.318;2022-09-24T03:15:05;6;6;
47705;PMS5003;33471;52.104;1.318;2022-09-24T03:17:32;7;6;
47705;PMS5003;33471;52.104;1.318;2022-09-24T03:20:00;4;4;
47705;PMS5003;33471;52.104;1.318;2022-09-24T03:22:28;6;4;
47705;PMS5003;33471;52.104;1.318;2022-09-24T03:24:54;7;7;
47705;PMS5003;33471;52.104;1.318;2022-09-24T03:27:21;5;5;
47705;PMS5003;33471;52.104;1.318;2022-09-24T03:29:48;5;5;
47705;PMS5003;33471;52.104;1.318;2022-09-24T03:32:16;6;5;
47705;PMS5003;33471;52.104;1.318;2022-09-24T03:34:43;5;5;
47705;PMS5003;33471;52.104;1.318;2022-09-24T03:37:10;4;4;
47705;PMS5003;33471;52.104;1.318;2022-09-24T03:39:38;4;4;
47705;PMS5003;33471;52.104;1.318;2022-09-24T03:42:05;5;5;
47705;PMS5003;33471;52.104;1.318;2022-09-24T03:44:32;8;7;
47705;PMS5003;33471;52.104;1.318;2022-09-24T03:46:58;6;6;
47705;PMS5003;33471;52.104;1.318;2022-09-24T03:49:26;7;7;
47705;PMS5003;33471;52.104;1.318;2022-09-24T03:51:52;7;5;
47705;PMS5003;33471;52.104;1.318;2022-09-24T03:54:19;7;5;
47705;PMS5003;33471;52.104;1.318;2022-09-24T03:56:47;7;7;
47705;PMS5003;33471;52.104;1.318;2022-09-24T03:59:15;17;17;
47705;PMS5003;33471;52.104;1.318;2022-09-24T04:01:45;13;13;
47705;PMS5003;33471;52.104;1.318;2022-09-24T04:04:13;8;8;
47705;PMS5003;33471;52.104;1.318;2022-09-24T04:06:41;6;6;
47705;PMS5003;33471;52.104;1.318;2022-09-24T04:09:08;9;9;
47705;PMS5003;33471;52.104;1.318;2022-09-24T04:11:35;16;15;
47705;PMS5003;33471;52.104;1.318;2022-09-24T04:14:03;8;8;
47705;PMS5003;33471;52.104;1.318;2022-09-24T04:16:31;11;11;
47705;PMS5003;33471;52.104;1.318;2022-09-24T04:18:57;15;15;
47705;PMS5003;33471;52.104;1.318;2022-09-24T04:21:24;7;7;
47705;PMS5003;33471;52.104;1.318;2022-09-24T04:23:51;11;10;
47705;PMS5003;33471;52.104;1.318;2022-09-24T04:26:18;10;10;
47705;PMS5003;33471;52.104;1.318;2022-09-24T04:28:46;16;14;
47705;PMS5003;33471;52.104;1.318;2022-09-24T04:31:13;20;16;
47705;PMS5003;33471;52.104;1.318;2022-09-24T04:33:41;18;16;
47705;PMS5003;33471;52.104;1.318;2022-09-24T04:36:08;11;9;
47705;PMS5003;33471;52.104;1.318;2022-09-24T04:38:35;14;10;
47705;PMS5003;33471;52.104;1.318;2022-09-24T04:41:04;10;10;
47705;PMS5003;33471;52.104;1.318;2022-09-24T04:43:33;10;9;
47705;PMS5003;33471;52.104;1.318;2022-09-24T04:46:00;8;8;
47705;PMS5003;33471;52.104;1.318;2022-09-24T04:48:27;13;10;
47705;PMS5003;33471;52.104;1.318;2022-09-24T04:50:55;10;9;
47705;PMS5003;33471;52.104;1.318;2022-09-24T04:53:22;10;10;
47705;PMS5003;33471;52.104;1.318;2022-09-24T04:55:50;17;16;
47705;PMS5003;33471;52.104;1.318;2022-09-24T04:58:17;9;8;
47705;PMS5003;33471;52.104;1.318;2022-09-24T05:00:45;11;11;
47705;PMS5003;33471;52.104;1.318;2022-09-24T05:03:12;8;8;
47705;PMS5003;33471;52.104;1.318;2022-09-24T05:05:39;11;10;
47705;PMS5003;33471;52.104;1.318;2022-09-24T05:08:06;11;10;
47705;PMS5003;33471;52.104;1.318;2022-09-24T05:10:33;10;9;
47705;PMS5003;33471;52.104;1.318;2022-09-24T05:13:00;16;16;
47705;PMS5003;33471;52.104;1.318;2022-09-24T05:15:27;10;10;
47705;PMS5003;33471;52.104;1.318;2022-09-24T05:17:55;13;13;
47705;PMS5003;33471;52.104;1.318;2022-09-24T05:20:22;11;11;
47705;PMS5003;33471;52.104;1.318;2022-09-24T05:22:50;11;11;
47705;PMS5003;33471;52.104;1.318;2022-09-24T05:25:19;9;9;
47705;PMS5003;33471;52.104;1.318;2022-09-24T05:27:48;11;10;
47705;PMS5003;33471;52.104;1.318;2022-09-24T05:30:18;12;11;
47705;PMS5003;33471;52.104;1.318;2022-09-24T05:32:46;8;8;
47705;PMS5003;33471;52.104;1.318;2022-09-24T05:35:14;8;8;
47705;PMS5003;33471;52.104;1.318;2022-09-24T05:37:42;8;6;
47705;PMS5003;33471;52.104;1.318;2022-09-24T05:40:10;13;12;
47705;PMS5003;33471;52.104;1.318;2022-09-24T05:42:37;9;7;
47705;PMS5003;33471;52.104;1.318;2022-09-24T05:45:04;10;9;
47705;PMS5003;33471;52.104;1.318;2022-09-24T05:47:31;8;8;
47705;PMS5003;33471;52.104;1.318;2022-09-24T05:49:59;9;9;
47705;PMS5003;33471;52.104;1.318;2022-09-24T05:52:26;13;13;
47705;PMS5003;33471;52.104;1.318;2022-09-24T05:54:53;18;15;
47705;PMS5003;33471;52.104;1.318;2022-09-24T05:57:20;16;16;
47705;PMS5003;33471;52.104;1.318;2022-09-24T05:59:48;13;13;
47705;PMS5003;33471;52.104;1.318;2022-09-24T06:02:15;11;11;
47705;PMS5003;33471;52.104;1.318;2022-09-24T06:04:43;9;9;
47705;PMS5003;33471;52.104;1.318;2022-09-24T06:07:10;8;8;
47705;PMS5003;33471;52.104;1.318;2022-09-24T06:09:37;10;8;
47705;PMS5003;33471;52.104;1.318;2022-09-24T06:12:06;8;7;
47705;PMS5003;33471;52.104;1.318;2022-09-24T06:14:34;7;7;
47705;PMS5003;33471;52.104;1.318;2022-09-24T06:17:01;8;7;
47705;PMS5003;33471;52.104;1.318;2022-09-24T06:19:28;14;14;
47705;PMS5003;33471;52.104;1.318;2022-09-24T06:21:56;6;6;
47705;PMS5003;33471;52.104;1.318;2022-09-24T06:24:23;9;9;
47705;PMS5003;33471;52.104;1.318;2022-09-24T06:26:50;7;7;
47705;PMS5003;33471;52.104;1.318;2022-09-24T06:29:17;7;7;
47705;PMS5003;33471;52.104;1.318;2022-09-24T06:31:45;10;9;
47705;PMS5003;33471;52.104;1.318;2022-09-24T06:34:13;6;6;
47705;PMS5003;33471;52.104;1.318;2022-09-24T06:36:41;6;6;
47705;PMS5003;33471;52.104;1.318;2022-09-24T06:39:08;8;6;
47705;PMS5003;33471;52.104;1.318;2022-09-24T06:41:35;5;5;
47705;PMS5003;33471;52.104;1.318;2022-09-24T06:44:03;7;6;
47705;PMS5003;33471;52.104;1.318;2022-09-24T06:46:30;7;7;
47705;PMS5003;33471;52.104;1.318;2022-09-24T06:48:57;9;9;
47705;PMS5003;33471;52.104;1.318;2022-09-24T06:51:24;9;7;
47705;PMS5003;33471;52.104;1.318;2022-09-24T06:53:51;9;9;
47705;PMS5003;33471;52.104;1.318;2022-09-24T06:56:18;10;8;
47705;PMS5003;33471;52.104;1.318;2022-09-24T06:58:45;12;9;
47705;PMS5003;33471;52.104;1.318;2022-09-24T07:01:13;12;12;
47705;PMS5003;33471;52.104;1.318;2022-09-24T07:03:41;11;11;
47705;PMS5003;33471;52.104;1.318;2022-09-24T07:06:08;7;7;
47705;PMS5003;33471;52.104;1.318;2022-09-24T07:08:35;6;4;
47705;PMS5003;33471;52.104;1.318;2022-09-24T07:11:02;3;3;
47705;PMS5003;33471;52.104;1.318;2022-09-24T07:13:29;5;5;
47705;PMS5003;33471;52.104;1.318;2022-09-24T07:15:57;4;4;
47705;PMS5003;33471;52.104;1.318;2022-09-24T07:18:24;4;3;
47705;PMS5003;33471;52.104;1.318;2022-09-24T07:20:51;2;2;
47705;PMS5003;33471;52.104;1.318;2022-09-24T07:23:19;6;6;
47705;PMS5003;33471;52.104;1.318;2022-09-24T07:25:47;3;2;
47705;PMS5003;33471;52.104;1.318;2022-09-24T07:28:14;4;4;
47705;PMS5003;33471;52.104;1.318;2022-09-24T07:30:42;2;2;
47705;PMS5003;33471;52.104;1.318;2022-09-24T07:33:10;4;4;
47705;PMS5003;33471;52.104;1.318;2022-09-24T07:35:37;6;4;
47705;PMS5003;33471;52.104;1.318;2022-09-24T07:38:06;3;3;
47705;PMS5003;33471;52.104;1.318;2022-09-24T07:40:36;7;7;
47705;PMS5003;33471;52.104;1.318;2022-09-24T07:43:03;5;3;
47705;PMS5003;33471;52.104;1.318;2022-09-24T07:45:31;5;4;
47705;PMS5003;33471;52.104;1.318;2022-09-24T07:47:59;2;2;
47705;PMS5003;33471;52.104;1.318;2022-09-24T07:50:30;4;4;
47705;PMS5003;33471;52.104;1.318;2022-09-24T07:52:58;2;2;
47705;PMS5003;33471;52.104;1.318;2022-09-24T07:55:26;2;2;
47705;PMS5003;33471;52.104;1.318;2022-09-24T07:57:53;3;3;
47705;PMS5003;33471;52.104;1.318;2022-09-24T08:00:21;3;3;
47705;PMS5003;33471;52.104;1.318;2022-09-24T08:02:50;1;1;
47705;PMS5003;33471;52.104;1.318;2022-09-24T08:05:17;4;4;
47705;PMS5003;33471;52.104;1.318;2022-09-24T08:07:51;2;2;
47705;PMS5003;33471;52.104;1.318;2022-09-24T08:10:19;1;1;
47705;PMS5003;33471;52.104;1.318;2022-09-24T08:12:46;3;3;
47705;PMS5003;33471;52.104;1.318;2022-09-24T08:15:14;1;1;
47705;PMS5003;33471;52.104;1.318;2022-09-24T08:17:42;5;5;
47705;PMS5003;33471;52.104;1.318;2022-09-24T08:20:10;3;3;
47705;PMS5003;33471;52.104;1.318;2022-09-24T08:22:37;3;2;
47705;PMS5003;33471;52.104;1.318;2022-09-24T08:25:05;3;2;
47705;PMS5003;33471;52.104;1.318;2022-09-24T08:27:33;2;2;
47705;PMS5003;33471;52.104;1.318;2022-09-24T08:30:00;1;1;
47705;PMS5003;33471;52.104;1.318;2022-09-24T08:32:28;2;2;
47705;PMS5003;33471;52.104;1.318;2022-09-24T08:34:55;3;3;
47705;PMS5003;33471;52.104;1.318;2022-09-24T08:37:22;1;1;
47705;PMS5003;33471;52.104;1.318;2022-09-24T08:39:49;2;2;
47705;PMS5003;33471;52.104;1.318;2022-09-24T08:42:21;3;3;
47705;PMS5003;33471;52.104;1.318;2022-09-24T08:44:58;2;2;
47705;PMS5003;33471;52.104;1.318;2022-09-24T08:47:31;3;2;
47705;PMS5003;33471;52.104;1.318;2022-09-24T08:50:05;1;1;
47705;PMS5003;33471;52.104;1.318;2022-09-24T08:52:43;2;2;
47705;PMS5003;33471;52.104;1.318;2022-09-24T08:55:20;2;2;
47705;PMS5003;33471;52.104;1.318;2022-09-24T08:57:56;2;2;
47705;PMS5003;33471;52.104;1.318;2022-09-24T09:00:33;1;1;
47705;PMS5003;33471;52.104;1.318;2022-09-24T09:03:05;2;1;
47705;PMS5003;33471;52.104;1.318;2022-09-24T09:05:44;0;0;
47705;PMS5003;33471;52.104;1.318;2022-09-24T09:08:24;1;1;
47705;PMS5003;33471;52.104;1.318;2022-09-24T09:11:01;1;1;
47705;PMS5003;33471;52.104;1.318;2022-09-24T09:13:31;1;1;
47705;PMS5003;33471;52.104;1.318;2022-09-24T09:16:04;0;0;
47705;PMS5003;33471;52.104;1.318;2022-09-24T09:18:39;0;0;
47705;PMS5003;33471;52.104;1.318;2022-09-24T09:21:11;1;1;
47705;PMS5003;33471;52.104;1.318;2022-09-24T09:23:44;0;0;
47705;PMS5003;33471;52.104;1.318;2022-09-24T09:26:14;0;0;
47705;PMS5003;33471;52.104;1.318;2022-09-24T09:28:43;1;0;
47705;PMS5003;33471;52.104;1.318;2022-09-24T09:31:13;1;1;
47705;PMS5003;33471;52.104;1.318;2022-09-24T09:33:55;0;0;
47705;PMS5003;33471;52.104;1.318;2022-09-24T09:36:41;1;1;
47705;PMS5003;33471;52.104;1.318;2022-09-24T09:39:21;0;0;
47705;PMS5003;33471;52.104;1.318;2022-09-24T09:42:00;0;0;
47705;PMS5003;33471;52.104;1.318;2022-09-24T09:44:36;0;0;
47705;PMS5003;33471;52.104;1.318;2022-09-24T09:47:10;2;2;
47705;PMS5003;33471;52.104;1.318;2022-09-24T09:49:45;2;1;
47705;PMS5003;33471;52.104;1.318;2022-09-24T09:52:18;1;1;
47705;PMS5003;33471;52.104;1.318;2022-09-24T09:54:47;1;1;
47705;PMS5003;33471;52.104;1.318;2022-09-24T09:57:14;0;0;
47705;PMS5003;33471;52.104;1.318;2022-09-24T09:59:45;1;1;
47705;PMS5003;33471;52.104;1.318;2022-09-24T10:02:17;1;1;
47705;PMS5003;33471;52.104;1.318;2022-09-24T10:04:51;0;0;
47705;PMS5003;33471;52.104;1.318;2022-09-24T10:07:21;0;0;
47705;PMS5003;33471;52.104;1.318;2022-09-24T10:09:57;6;6;
47705;PMS5003;33471;52.104;1.318;2022-09-24T10:12:26;2;2;
47705;PMS5003;33471;52.104;1.318;2022-09-24T10:14:56;2;0;
47705;PMS5003;33471;52.104;1.318;2022-09-24T10:17:27;1;1;
47705;PMS5003;33471;52.104;1.318;2022-09-24T10:19:59;2;2;
47705;PMS5003;33471;52.104;1.318;2022-09-24T10:22:28;9;8;
47705;PMS5003;33471;52.104;1.318;2022-09-24T10:24:56;1;1;
47705;PMS5003;33471;52.104;1.318;2022-09-24T10:27:28;1;1;
47705;PMS5003;33471;52.104;1.318;2022-09-24T10:29:59;0;0;
47705;PMS5003;33471;52.104;1.318;2022-09-24T10:32:28;2;1;
47705;PMS5003;33471;52.104;1.318;2022-09-24T10:34:57;1;1;
47705;PMS5003;33471;52.104;1.318;2022-09-24T10:37:25;0;0;
47705;PMS5003;33471;52.104;1.318;2022-09-24T10:39:56;1;1;
47705;PMS5003;33471;52.104;1.318;2022-09-24T10:42:25;1;1;
47705;PMS5003;33471;52.104;1.318;2022-09-24T10:44:54;1;1;
47705;PMS5003;33471;52.104;1.318;2022-09-24T10:47:25;2;2;
47705;PMS5003;33471;52.104;1.318;2022-09-24T10:50:02;2;1;
47705;PMS5003;33471;52.104;1.318;2022-09-24T10:52:41;1;1;
47705;PMS5003;33471;52.104;1.318;2022-09-24T10:55:15;1;1;
47705;PMS5003;33471;52.104;1.318;2022-09-24T10:57:54;0;0;
47705;PMS5003;33471;52.104;1.318;2022-09-24T11:00:27;0;0;
47705;PMS5003;33471;52.104;1.318;2022-09-24T11:03:25;0;0;
47705;PMS5003;33471;52.104;1.318;2022-09-24T11:06:07;1;1;
47705;PMS5003;33471;52.104;1.318;2022-09-24T11:08:46;0;0;
47705;PMS5003;33471;52.104;1.318;2022-09-24T11:11:27;0;0;
47705;PMS5003;33471;52.104;1.318;2022-09-24T11:14:11;1;1;
47705;PMS5003;33471;52.104;1.318;2022-09-24T11:16:54;1;1;
47705;PMS5003;33471;52.104;1.318;2022-09-24T11:19:37;0;0;
47705;PMS5003;33471;52.104;1.318;2022-09-24T11:22:18;1;1;
47705;PMS5003;33471;52.104;1.318;2022-09-24T11:25:02;1;1;
47705;PMS5003;33471;52.104;1.318;2022-09-24T11:27:48;0;0;
47705;PMS5003;33471;52.104;1.318;2022-09-24T11:30:22;0;0;
47705;PMS5003;33471;52.104;1.318;2022-09-24T11:32:59;0;0;
47705;PMS5003;33471;52.104;1.318;2022-09-24T11:35:46;0;0;
47705;PMS5003;33471;52.104;1.318;2022-09-24T11:38:26;1;1;
47705;PMS5003;33471;52.104;1.318;2022-09-24T11:41:09;0;0;
47705;PMS5003;33471;52.104;1.318;2022-09-24T11:43:51;0;0;
47705;PMS5003;33471;52.104;1.318;2022-09-24T11:46:37;0;0;
47705;PMS5003;33471;52.104;1.318;2022-09-24T11:49:21;2;2;
47705;PMS5003;33471;52.104;1.318;2022-09-24T11:52:02;1;1;
47705;PMS5003;33471;52.104;1.318;2022-09-24T11:54:36;0;0;
47705;PMS5003;33471;52.104;1.318;2022-09-24T11:57:12;0;0;
47705;PMS5003;33471;52.104;1.318;2022-09-24T11:59:47;0;0;
47705;PMS5003;33471;52.104;1.318;2022-09-24T12:02:20;1;1;
47705;PMS5003;33471;52.104;1.318;2022-09-24T12:04:53;0;0;
47705;PMS5003;33471;52.104;1.318;2022-09-24T12:07:26;0;0;
47705;PMS5003;33471;52.104;1.318;2022-09-24T12:10:01;1;1;
47705;PMS5003;33471;52.104;1.318;2022-09-24T12:12:40;0;0;
47705;PMS5003;33471;52.104;1.318;2022-09-24T12:15:12;0;0;
47705;PMS5003;33471;52.104;1.318;2022-09-24T12:17:44;1;1;
47705;PMS5003;33471;52.104;1.318;2022-09-24T12:20:19;0;0;
47705;PMS5003;33471;52.104;1.318;2022-09-24T12:22:52;1;1;
47705;PMS5003;33471;52.104;1.318;2022-09-24T12:25:23;1;1;
47705;PMS5003;33471;52.104;1.318;2022-09-24T12:27:50;2;1;
47705;PMS5003;33471;52.104;1.318;2022-09-24T12:30:22;4;2;
47705;PMS5003;33471;52.104;1.318;2022-09-24T12:32:57;1;1;
47705;PMS5003;33471;52.104;1.318;2022-09-24T12:35:31;1;1;
47705;PMS5003;33471;52.104;1.318;2022-09-24T12:38:11;0;0;
47705;PMS5003;33471;52.104;1.318;2022-09-24T12:41:19;1;1;
47705;PMS5003;33471;52.104;1.318;2022-09-24T12:43:53;2;1;
47705;PMS5003;33471;52.104;1.318;2022-09-24T12:46:26;1;1;
47705;PMS5003;33471;52.104;1.318;2022-09-24T12:48:56;0;0;
47705;PMS5003;33471;52.104;1.318;2022-09-24T12:51:31;1;1;
47705;PMS5003;33471;52.104;1.318;2022-09-24T12:54:05;1;1;
47705;PMS5003;33471;52.104;1.318;2022-09-24T12:56:45;0;0;
47705;PMS5003;33471;52.104;1.318;2022-09-24T12:59:23;1;1;
47705;PMS5003;33471;52.104;1.318;2022-09-24T13:01:51;1;1;
47705;PMS5003;33471;52.104;1.318;2022-09-24T13:04:27;2;2;
47705;PMS5003;33471;52.104;1.318;2022-09-24T13:06:55;0;0;
47705;PMS5003;33471;52.104;1.318;2022-09-24T13:09:32;0;0;
47705;PMS5003;33471;52.104;1.318;2022-09-24T13:12:05;1;1;
47705;PMS5003;33471;52.104;1.318;2022-09-24T13:14:48;0;0;
47705;PMS5003;33471;52.104;1.318;2022-09-24T13:17:20;1;1;
47705;PMS5003;33471;52.104;1.318;2022-09-24T13:19:48;0;0;
47705;PMS5003;33471;52.104;1.318;2022-09-24T13:22:25;1;1;
47705;PMS5003;33471;52.104;1.318;2022-09-24T13:25:07;3;1;
47705;PMS5003;33471;52.104;1.318;2022-09-24T13:27:55;1;1;
47705;PMS5003;33471;52.104;1.318;2022-09-24T13:30:30;3;2;
47705;PMS5003;33471;52.104;1.318;2022-09-24T13:33:01;2;2;
47705;PMS5003;33471;52.104;1.318;2022-09-24T13:35:40;0;0;
47705;PMS5003;33471;52.104;1.318;2022-09-24T13:38:14;0;0;
47705;PMS5003;33471;52.104;1.318;2022-09-24T13:40:48;1;1;
47705;PMS5003;33471;52.104;1.318;2022-09-24T13:43:29;1;1;
47705;PMS5003;33471;52.104;1.318;2022-09-24T13:46:06;1;1;
47705;PMS5003;33471;52.104;1.318;2022-09-24T13:48:40;3;3;
47705;PMS5003;33471;52.104;1.318;2022-09-24T13:51:13;1;1;
47705;PMS5003;33471;52.104;1.318;2022-09-24T13:53:43;0;0;
47705;PMS5003;33471;52.104;1.318;2022-09-24T13:56:17;0;0;
47705;PMS5003;33471;52.104;1.318;2022-09-24T13:58:46;0;0;
47705;PMS5003;33471;52.104;1.318;2022-09-24T14:01:14;2;2;
47705;PMS5003;33471;52.104;1.318;2022-09-24T14:03:50;0;0;
47705;PMS5003;33471;52.104;1.318;2022-09-24T14:06:20;0;0;
47705;PMS5003;33471;52.104;1.318;2022-09-24T14:08:59;1;1;
47705;PMS5003;33471;52.104;1.318;2022-09-24T14:11:27;0;0;
47705;PMS5003;33471;52.104;1.318;2022-09-24T14:13:54;0;0;
47705;PMS5003;33471;52.104;1.318;2022-09-24T14:16:22;0;0;
47705;PMS5003;33471;52.104;1.318;2022-09-24T14:18:59;0;0;
47705;PMS5003;33471;52.104;1.318;2022-09-24T14:21:29;0;0;
47705;PMS5003;33471;52.104;1.318;2022-09-24T14:24:01;0;0;
47705;PMS5003;33471;52.104;1.318;2022-09-24T14:26:32;1;1;
47705;PMS5003;33471;52.104;1.318;2022-09-24T14:29:03;1;0;
47705;PMS5003;33471;52.104;1.318;2022-09-24T14:31:41;0;0;
47705;PMS5003;33471;52.104;1.318;2022-09-24T14:34:12;1;1;
47705;PMS5003;33471;52.104;1.318;2022-09-24T14:36:51;1;1;
47705;PMS5003;33471;52.104;1.318;2022-09-24T14:39:19;2;2;
47705;PMS5003;33471;52.104;1.318;2022-09-24T14:41:50;0;0;
47705;PMS5003;33471;52.104;1.318;2022-09-24T14:44:19;1;1;
47705;PMS5003;33471;52.104;1.318;2022-09-24T14:46:49;0;0;
47705;PMS5003;33471;52.104;1.318;2022-09-24T14:49:18;0;0;
47705;PMS5003;33471;52.104;1.318;2022-09-24T14:51:51;0;0;
47705;PMS5003;33471;52.104;1.318;2022-09-24T14:54:24;1;1;
47705;PMS5003;33471;52.104;1.318;2022-09-24T14:57:06;5;3;
47705;PMS5003;33471;52.104;1.318;2022-09-24T14:59:35;2;2;
47705;PMS5003;33471;52.104;1.318;2022-09-24T15:02:13;6;6;
47705;PMS5003;33471;52.104;1.318;2022-09-24T15:04:44;4;2;
47705;PMS5003;33471;52.104;1.318;2022-09-24T15:07:15;3;1;
47705;PMS5003;33471;52.104;1.318;2022-09-24T15:09:47;0;0;
47705;PMS5003;33471;52.104;1.318;2022-09-24T15:12:17;1;1;
47705;PMS5003;33471;52.104;1.318;2022-09-24T15:14:52;2;2;
47705;PMS5003;33471;52.104;1.318;2022-09-24T15:17:21;2;2;
47705;PMS5003;33471;52.104;1.318;2022-09-24T15:19:51;2;2;
47705;PMS5003;33471;52.104;1.318;2022-09-24T15:22:18;4;3;
47705;PMS5003;33471;52.104;1.318;2022-09-24T15:24:46;2;2;
47705;PMS5003;33471;52.104;1.318;2022-09-24T15:27:15;2;2;
47705;PMS5003;33471;52.104;1.318;2022-09-24T15:29:47;1;1;
47705;PMS5003;33471;52.104;1.318;2022-09-24T15:32:15;2;2;
47705;PMS5003;33471;52.104;1.318;2022-09-24T15:34:44;2;2;
47705;PMS5003;33471;52.104;1.318;2022-09-24T15:37:14;1;1;
47705;PMS5003;33471;52.104;1.318;2022-09-24T15:39:44;1;1;
47705;PMS5003;33471;52.104;1.318;2022-09-24T15:42:12;2;2;
47705;PMS5003;33471;52.104;1.318;2022-09-24T15:44:40;1;1;
47705;PMS5003;33471;52.104;1.318;2022-09-24T15:47:09;1;1;
47705;PMS5003;33471;52.104;1.318;2022-09-24T15:49:36;2;2;
47705;PMS5003;33471;52.104;1.318;2022-09-24T15:52:05;4;2;
47705;PMS5003;33471;52.104;1.318;2022-09-24T15:54:38;3;3;
47705;PMS5003;33471;52.104;1.318;2022-09-24T15:57:05;0;0;
47705;PMS5003;33471;52.104;1.318;2022-09-24T15:59:32;1;1;
47705;PMS5003;33471;52.104;1.318;2022-09-24T16:02:01;5;3;
47705;PMS5003;33471;52.104;1.318;2022-09-24T16:04:37;3;2;
47705;PMS5003;33471;52.104;1.318;2022-09-24T16:07:04;1;1;
47705;PMS5003;33471;52.104;1.318;2022-09-24T16:09:31;2;1;
47705;PMS5003;33471;52.104;1.318;2022-09-24T16:11:59;2;2;
47705;PMS5003;33471;52.104;1.318;2022-09-24T16:14:26;2;2;
47705;PMS5003;33471;52.104;1.318;2022-09-24T16:16:53;2;2;
47705;PMS5003;33471;52.104;1.318;2022-09-24T16:19:22;0;0;
47705;PMS5003;33471;52.104;1.318;2022-09-24T16:21:48;1;1;
47705;PMS5003;33471;52.104;1.318;2022-09-24T16:24:16;1;1;
47705;PMS5003;33471;52.104;1.318;2022-09-24T16:26:44;1;1;
47705;PMS5003;33471;52.104;1.318;2022-09-24T16:29:11;4;4;
47705;PMS5003;33471;52.104;1.318;2022-09-24T16:31:38;3;2;
47705;PMS5003;33471;52.104;1.318;2022-09-24T16:34:05;3;1;
47705;PMS5003;33471;52.104;1.318;2022-09-24T16:36:32;1;1;
47705;PMS5003;33471;52.104;1.318;2022-09-24T16:39:00;1;1;
47705;PMS5003;33471;52.104;1.318;2022-09-24T16:41:28;1;1;
47705;PMS5003;33471;52.104;1.318;2022-09-24T16:43:55;2;2;
47705;PMS5003;33471;52.104;1.318;2022-09-24T16:46:22;1;1;
47705;PMS5003;33471;52.104;1.318;2022-09-24T16:48:50;6;6;
47705;PMS5003;33471;52.104;1.318;2022-09-24T16:51:17;1;1;
47705;PMS5003;33471;52.104;1.318;2022-09-24T16:53:44;2;2;
47705;PMS5003;33471;52.104;1.318;2022-09-24T16:56:13;1;1;
47705;PMS5003;33471;52.104;1.318;2022-09-24T16:58:43;3;3;
47705;PMS5003;33471;52.104;1.318;2022-09-24T17:01:12;0;0;
47705;PMS5003;33471;52.104;1.318;2022-09-24T17:03:40;2;2;
47705;PMS5003;33471;52.104;1.318;2022-09-24T17:06:08;5;2;
47705;PMS5003;33471;52.104;1.318;2022-09-24T17:08:43;2;2;
47705;PMS5003;33471;52.104;1.318;2022-09-24T17:11:10;2;2;